createdAt,value
2018-04-11T00:02:25.072Z,38.20
2018-04-11T00:04:52.572Z,41.60
2018-04-11T00:07:20.047Z,44.80
2018-04-11T00:09:47.525Z,48.67
2018-04-11T00:12:14.995Z,47.47
2018-04-11T00:14:42.519Z,52.03
2018-04-11T00:17:10.772Z,41.43
2018-04-11T00:19:38.291Z,51.17
2018-04-11T00:22:05.792Z,43.50
2018-04-11T00:24:33.267Z,46.67
2018-04-11T00:27:01.525Z,43.83
2018-04-11T00:29:29.110Z,43.00
2018-04-11T00:31:57.358Z,44.30
2018-04-11T00:34:25.166Z,44.43
2018-04-11T00:36:52.621Z,46.93
2018-04-11T00:39:20.166Z,44.47
2018-04-11T00:41:47.688Z,43.80
2018-04-11T00:44:15.956Z,45.13
2018-04-11T00:46:43.435Z,51.10
2018-04-11T00:49:11.740Z,48.83
2018-04-11T00:51:39.242Z,47.63
2018-04-11T00:54:08.225Z,47.70
2018-04-11T00:56:35.791Z,52.53
2018-04-11T00:59:03.280Z,48.97
2018-04-11T01:01:30.835Z,52.57
2018-04-11T01:03:58.368Z,48.03
2018-04-11T01:06:25.871Z,47.07
2018-04-11T01:08:53.386Z,45.07
2018-04-11T01:11:20.895Z,40.77
2018-04-11T01:13:48.389Z,43.10
2018-04-11T01:16:15.922Z,49.17
2018-04-11T01:18:43.488Z,46.50
2018-04-11T01:21:10.987Z,47.37
2018-04-11T01:23:39.368Z,51.27
2018-04-11T01:26:06.916Z,56.03
2018-04-11T01:28:35.293Z,48.33
2018-04-11T01:31:03.524Z,47.73
2018-04-11T01:33:31.025Z,46.40
2018-04-11T01:35:59.374Z,46.60
2018-04-11T01:38:27.742Z,55.00
2018-04-11T01:40:55.218Z,45.17
2018-04-11T01:43:23.478Z,49.07
2018-04-11T01:45:51.035Z,44.03
2018-04-11T01:48:18.516Z,49.00
2018-04-11T01:50:46.798Z,50.50
2018-04-11T01:53:14.310Z,50.67
2018-04-11T01:55:41.871Z,50.77
2018-04-11T01:58:09.471Z,48.20
2018-04-11T02:00:36.957Z,52.50
2018-04-11T02:03:04.458Z,59.70
2018-04-11T02:05:31.935Z,53.47
2018-04-11T02:08:00.201Z,56.27
2018-04-11T02:10:28.578Z,60.83
2018-04-11T02:12:56.027Z,62.20
2018-04-11T02:15:24.277Z,63.40
2018-04-11T02:17:51.796Z,58.03
2018-04-11T02:20:19.286Z,56.23
2018-04-11T02:22:46.772Z,66.17
2018-04-11T02:25:14.245Z,64.57
2018-04-11T02:27:41.776Z,58.43
2018-04-11T02:30:09.253Z,52.50
2018-04-11T02:32:37.528Z,56.03
2018-04-11T02:35:05.788Z,56.27
2018-04-11T02:37:34.116Z,54.27
2018-04-11T02:40:01.826Z,50.77
2018-04-11T02:42:29.332Z,55.57
2018-04-11T02:44:56.837Z,55.00
2018-04-11T02:47:25.097Z,59.20
2018-04-11T02:49:52.681Z,52.50
2018-04-11T02:52:21.039Z,61.27
2018-04-11T02:54:48.600Z,60.10
2018-04-11T02:57:16.096Z,54.07
2018-04-11T02:59:43.608Z,51.07
2018-04-11T03:02:11.179Z,56.73
2018-04-11T03:04:39.431Z,55.73
2018-04-11T03:07:06.896Z,60.70
2018-04-11T03:09:35.213Z,59.60
2018-04-11T03:12:02.722Z,61.70
2018-04-11T03:14:30.258Z,58.40
2018-04-11T03:16:57.726Z,67.17
2018-04-11T03:19:25.269Z,64.20
2018-04-11T03:21:52.877Z,68.53
2018-04-11T03:24:20.305Z,68.70
2018-04-11T03:26:47.853Z,69.90
2018-04-11T03:29:15.294Z,71.30
2018-04-11T03:31:42.829Z,76.60
2018-04-11T03:34:10.309Z,78.57
2018-04-11T03:36:37.872Z,72.53
2018-04-11T03:39:05.337Z,75.17
2018-04-11T03:41:32.889Z,72.43
2018-04-11T03:44:00.440Z,75.73
2018-04-11T03:46:28.002Z,75.37
2018-04-11T03:48:55.569Z,69.13
2018-04-11T03:51:23.124Z,73.30
2018-04-11T03:53:52.094Z,72.43
2018-04-11T03:56:19.535Z,83.13
2018-04-11T03:58:47.009Z,81.70
2018-04-11T04:01:14.601Z,81.97
2018-04-11T04:03:42.129Z,74.47
2018-04-11T04:06:09.572Z,75.70
2018-04-11T04:08:37.811Z,75.87
2018-04-11T04:11:05.284Z,73.77
2018-04-11T04:13:44.893Z,80.20
2018-04-11T04:16:24.285Z,88.40
2018-04-11T04:19:03.693Z,76.23
2018-04-11T04:21:31.188Z,74.00
2018-04-11T04:23:58.633Z,79.00
2018-04-11T04:26:26.092Z,73.40
2018-04-11T04:28:53.657Z,74.90
2018-04-11T04:31:21.206Z,76.73
2018-04-11T04:33:48.662Z,72.10
2018-04-11T04:36:16.118Z,69.27
2018-04-11T04:38:43.594Z,73.73
2018-04-11T04:41:11.131Z,74.40
2018-04-11T04:43:38.582Z,71.87
2018-04-11T04:46:06.117Z,82.13
2018-04-11T04:48:33.589Z,84.53
2018-04-11T04:51:01.034Z,73.17
2018-04-11T04:53:28.607Z,73.43
2018-04-11T04:55:56.150Z,72.93
2018-04-11T04:58:23.626Z,70.17
2018-04-11T05:00:51.102Z,86.27
2018-04-11T05:03:18.641Z,75.53
2018-04-11T05:05:46.230Z,73.87
2018-04-11T05:08:14.576Z,64.30
2018-04-11T05:10:42.109Z,66.53
2018-04-11T05:13:09.692Z,60.23
2018-04-11T05:15:37.174Z,62.93
2018-04-11T05:18:04.705Z,63.23
2018-04-11T05:20:32.246Z,66.37
2018-04-11T05:22:59.748Z,70.93
2018-04-11T05:25:28.004Z,62.97
2018-04-11T05:27:55.447Z,68.17
2018-04-11T05:30:22.994Z,64.97
2018-04-11T05:32:50.477Z,64.80
2018-04-11T05:35:19.045Z,79.37
2018-04-11T05:37:46.489Z,68.60
2018-04-11T05:40:13.972Z,72.10
2018-04-11T05:42:42.918Z,70.37
2018-04-11T05:45:10.365Z,67.30
2018-04-11T05:47:37.819Z,75.70
2018-04-11T05:50:05.281Z,66.20
2018-04-11T05:52:32.739Z,66.67
2018-04-11T05:55:01.137Z,63.60
2018-04-11T05:57:28.606Z,68.17
2018-04-11T05:59:56.160Z,65.63
2018-04-11T06:02:25.115Z,65.10
2018-04-11T06:04:52.588Z,72.20
2018-04-11T06:07:20.867Z,70.10
2018-04-11T06:09:48.334Z,70.20
2018-04-11T06:12:15.809Z,75.57
2018-04-11T06:14:43.258Z,70.53
2018-04-11T06:17:10.794Z,70.77
2018-04-11T06:19:39.032Z,77.83
2018-04-11T06:22:07.175Z,87.27
2018-04-11T06:24:35.405Z,85.50
2018-04-11T06:27:02.869Z,95.87
2018-04-11T06:29:30.421Z,88.23
2018-04-11T06:31:57.954Z,86.60
2018-04-11T06:34:25.442Z,93.53
2018-04-11T06:36:52.997Z,81.87
2018-04-11T06:39:20.456Z,86.23
2018-04-11T06:41:47.948Z,88.27
2018-04-11T06:44:16.182Z,88.97
2018-04-11T06:46:43.742Z,82.97
2018-04-11T06:49:11.181Z,90.97
2018-04-11T06:51:38.832Z,83.93
2018-04-11T06:54:06.262Z,83.03
2018-04-11T06:56:34.499Z,93.07
2018-04-11T06:59:02.074Z,91.93
2018-04-11T07:01:29.537Z,85.60
2018-04-11T07:03:57.769Z,94.17
2018-04-11T07:06:25.232Z,94.13
2018-04-11T07:08:52.942Z,88.80
2018-04-11T07:11:21.180Z,100.00
2018-04-11T07:13:48.727Z,86.97
2018-04-11T07:16:16.276Z,95.57
2018-04-11T07:18:43.737Z,97.27
2018-04-11T07:21:11.293Z,97.37
2018-04-11T07:23:38.841Z,95.87
2018-04-11T07:26:06.309Z,90.63
2018-04-11T07:28:33.862Z,96.60
2018-04-11T07:31:01.418Z,97.00
2018-04-11T07:33:28.871Z,98.60
2018-04-11T07:35:56.336Z,97.07
2018-04-11T07:38:23.895Z,98.17
2018-04-11T07:40:51.388Z,87.53
2018-04-11T07:43:19.605Z,97.63
2018-04-11T07:45:47.079Z,93.57
2018-04-11T07:48:14.540Z,90.13
2018-04-11T07:50:42.097Z,97.50
2018-04-11T07:53:09.674Z,92.20
2018-04-11T07:55:37.203Z,88.10
2018-04-11T07:58:04.667Z,97.77
2018-04-11T08:00:32.133Z,89.40
2018-04-11T08:02:59.597Z,104.90
2018-04-11T08:05:27.816Z,91.53
2018-04-11T08:07:55.310Z,89.40
2018-04-11T08:10:22.853Z,97.70
2018-04-11T08:12:50.425Z,100.83
2018-04-11T08:15:17.869Z,91.43
2018-04-11T08:17:45.328Z,93.40
2018-04-11T08:20:12.857Z,86.70
2018-04-11T08:22:40.307Z,104.03
2018-04-11T08:25:07.794Z,91.90
2018-04-11T08:27:35.253Z,98.87
2018-04-11T08:30:02.807Z,96.67
2018-04-11T08:32:30.253Z,89.30
2018-04-11T08:34:57.717Z,89.57
2018-04-11T08:37:25.195Z,96.47
2018-04-11T08:39:52.733Z,93.70
2018-04-11T08:42:20.285Z,94.47
2018-04-11T08:44:47.853Z,87.93
2018-04-11T08:47:15.399Z,90.63
2018-04-11T08:49:42.861Z,95.47
2018-04-11T08:52:10.358Z,94.73
2018-04-11T08:54:38.626Z,97.80
2018-04-11T08:57:06.833Z,95.10
2018-04-11T08:59:34.297Z,91.77
2018-04-11T09:02:01.743Z,104.70
2018-04-11T09:04:29.257Z,100.97
2018-04-11T09:06:56.811Z,100.33
2018-04-11T09:09:24.350Z,100.90
2018-04-11T09:11:51.822Z,97.20
2018-04-11T09:14:19.352Z,88.53
2018-04-11T09:16:46.840Z,90.83
2018-04-11T09:19:14.415Z,100.80
2018-04-11T09:21:42.648Z,95.53
2018-04-11T09:24:10.110Z,95.63
2018-04-11T09:26:37.659Z,109.80
2018-04-11T09:29:05.117Z,92.97
2018-04-11T09:31:32.578Z,88.60
2018-04-11T09:34:00.089Z,97.83
2018-04-11T09:36:27.583Z,89.47
2018-04-11T09:38:55.063Z,91.73
2018-04-11T09:41:22.524Z,100.10
2018-04-11T09:43:49.958Z,92.53
2018-04-11T09:46:17.533Z,95.10
2018-04-11T09:48:45.764Z,97.13
2018-04-11T09:51:13.222Z,90.17
2018-04-11T09:53:40.690Z,109.97
2018-04-11T09:56:08.163Z,103.03
2018-04-11T09:58:35.724Z,127.73
2018-04-11T10:01:04.922Z,134.93
2018-04-11T10:03:32.394Z,122.47
2018-04-11T10:06:00.631Z,136.63
2018-04-11T10:08:28.091Z,128.60
2018-04-11T10:10:55.570Z,111.43
2018-04-11T10:13:24.560Z,112.20
2018-04-11T10:15:52.069Z,98.67
2018-04-11T10:18:19.495Z,102.13
2018-04-11T10:20:46.983Z,103.33
2018-04-11T10:23:14.427Z,115.57
2018-04-11T10:25:41.921Z,111.20
2018-04-11T10:28:09.376Z,108.07
2018-04-11T10:30:36.842Z,112.70
2018-04-11T10:33:04.303Z,112.73
2018-04-11T10:35:31.814Z,108.20
2018-04-11T10:37:59.316Z,108.17
2018-04-11T10:40:26.862Z,102.30
2018-04-11T10:42:54.419Z,95.47
2018-04-11T10:45:21.973Z,95.53
2018-04-11T10:47:49.457Z,91.97
2018-04-11T10:50:17.714Z,92.60
2018-04-11T10:52:45.356Z,93.47
2018-04-11T10:55:12.825Z,95.20
2018-04-11T10:57:40.379Z,85.33
2018-04-11T11:00:07.957Z,86.33
2018-04-11T11:02:36.934Z,91.23
2018-04-11T11:05:04.489Z,86.30
2018-04-11T11:07:32.046Z,84.80
2018-04-11T11:09:59.536Z,90.37
2018-04-11T11:12:27.765Z,94.60
2018-04-11T11:14:55.327Z,97.77
2018-04-11T11:17:22.990Z,120.63
2018-04-11T11:20:01.427Z,106.10
2018-04-11T11:22:28.878Z,89.80
2018-04-11T11:24:56.363Z,83.30
2018-04-11T11:27:23.893Z,85.40
2018-04-11T11:29:51.429Z,88.63
2018-04-11T11:32:18.882Z,91.87
2018-04-11T11:34:46.322Z,82.03
2018-04-11T11:37:13.808Z,91.83
2018-04-11T11:39:41.280Z,86.37
2018-04-11T11:42:08.822Z,85.97
2018-04-11T11:44:37.817Z,85.03
2018-04-11T11:47:05.354Z,79.03
2018-04-11T11:49:33.035Z,84.00
2018-04-11T11:52:00.512Z,90.83
2018-04-11T11:54:28.004Z,83.43
2018-04-11T11:56:55.469Z,79.47
2018-04-11T11:59:22.933Z,83.47
2018-04-11T12:01:50.400Z,76.13
2018-04-11T12:04:17.955Z,87.87
2018-04-11T12:06:45.426Z,82.10
2018-04-11T12:09:12.903Z,104.90
2018-04-11T12:11:41.184Z,86.00
2018-04-11T12:14:09.410Z,86.03
2018-04-11T12:16:36.888Z,87.83
2018-04-11T12:19:04.334Z,87.87
2018-04-11T12:21:31.810Z,88.13
2018-04-11T12:23:59.347Z,79.90
2018-04-11T12:26:26.900Z,85.67
2018-04-11T12:28:54.462Z,88.80
2018-04-11T12:31:21.909Z,83.03
2018-04-11T12:33:49.372Z,75.13
2018-04-11T12:36:16.859Z,72.43
2018-04-11T12:38:45.119Z,63.50
2018-04-11T12:41:12.567Z,67.63
2018-04-11T12:43:40.031Z,68.77
2018-04-11T12:46:07.575Z,57.37
2018-04-11T12:48:35.029Z,60.83
2018-04-11T12:51:02.489Z,71.63
2018-04-11T12:53:30.701Z,47.50
2018-04-11T12:55:58.225Z,43.27
2018-04-11T12:58:25.778Z,41.03
2018-04-11T13:00:53.318Z,40.43
2018-04-11T13:03:20.913Z,39.43
2018-04-11T13:05:48.365Z,36.40
2018-04-11T13:08:15.903Z,38.87
2018-04-11T13:10:43.454Z,37.30
2018-04-11T13:13:11.027Z,42.00
2018-04-11T13:15:38.578Z,35.83
2018-04-11T13:18:06.137Z,34.93
2018-04-11T13:20:33.610Z,31.50
2018-04-11T13:23:01.157Z,30.47
2018-04-11T13:25:28.695Z,30.27
2018-04-11T13:27:56.154Z,64.87
2018-04-11T13:30:23.626Z,81.10
2018-04-11T13:32:51.171Z,86.27
2018-04-11T13:35:18.623Z,89.23
2018-04-11T13:37:46.111Z,101.87
2018-04-11T13:40:14.376Z,102.23
2018-04-11T13:42:41.849Z,113.77
2018-04-11T13:45:10.089Z,112.00
2018-04-11T13:47:37.686Z,115.90
2018-04-11T13:50:05.989Z,120.87
2018-04-11T13:52:33.471Z,114.17
2018-04-11T13:55:00.931Z,119.50
2018-04-11T13:57:28.431Z,117.60
2018-04-11T13:59:55.951Z,122.40
2018-04-11T14:02:23.503Z,122.60
2018-04-11T14:04:50.959Z,124.73
2018-04-11T14:07:18.510Z,115.60
2018-04-11T14:09:45.975Z,119.23
2018-04-11T14:12:13.533Z,116.47
2018-04-11T14:14:40.997Z,118.87
2018-04-11T14:17:09.371Z,126.63
2018-04-11T14:19:36.811Z,123.93
2018-04-11T14:22:04.378Z,122.60
2018-04-11T14:24:31.858Z,118.93
2018-04-11T14:26:59.314Z,111.47
2018-04-11T14:29:26.766Z,108.27
2018-04-11T14:31:55.020Z,119.17
2018-04-11T14:34:22.573Z,130.07
2018-04-11T14:36:50.040Z,128.13
2018-04-11T14:39:17.585Z,115.50
2018-04-11T14:41:45.073Z,118.50
2018-04-11T14:44:13.309Z,112.83
2018-04-11T14:46:40.761Z,102.27
2018-04-11T14:49:08.231Z,104.30
2018-04-11T14:51:35.820Z,93.93
2018-04-11T14:54:04.048Z,107.70
2018-04-11T14:56:31.631Z,99.10
2018-04-11T14:58:59.100Z,109.37
2018-04-11T15:01:26.646Z,99.63
2018-04-11T15:03:54.202Z,111.27
2018-04-11T15:06:21.686Z,100.17
2018-04-11T15:08:49.902Z,88.17
2018-04-11T15:11:17.367Z,106.37
2018-04-11T15:13:44.945Z,84.93
2018-04-11T15:16:12.388Z,87.73
2018-04-11T15:18:39.848Z,84.93
2018-04-11T15:21:07.314Z,84.93
2018-04-11T15:23:34.756Z,77.47
2018-04-11T15:26:02.391Z,72.67
2018-04-11T15:28:29.827Z,68.30
2018-04-11T15:30:57.329Z,73.07
2018-04-11T15:33:24.793Z,82.87
2018-04-11T15:35:52.225Z,87.80
2018-04-11T15:38:19.796Z,85.17
2018-04-11T15:40:47.243Z,87.20
2018-04-11T15:43:14.844Z,86.07
2018-04-11T15:45:42.363Z,88.93
2018-04-11T15:48:09.824Z,87.77
2018-04-11T15:50:37.342Z,85.57
2018-04-11T15:53:04.846Z,92.20
2018-04-11T15:55:32.306Z,77.37
2018-04-11T15:57:59.851Z,77.30
2018-04-11T16:00:27.355Z,77.80
2018-04-11T16:02:55.565Z,76.30
2018-04-11T16:05:23.048Z,80.33
2018-04-11T16:07:50.490Z,75.43
2018-04-11T16:10:17.951Z,70.97
2018-04-11T16:12:45.516Z,76.27
2018-04-11T16:15:12.978Z,75.17
2018-04-11T16:17:40.456Z,82.53
2018-04-11T16:20:08.718Z,68.93
2018-04-11T16:22:36.162Z,79.80
2018-04-11T16:25:03.629Z,83.33
2018-04-11T16:27:31.903Z,78.70
2018-04-11T16:29:59.335Z,69.93
2018-04-11T16:32:26.891Z,82.73
2018-04-11T16:34:54.405Z,72.93
2018-04-11T16:37:21.895Z,78.40
2018-04-11T16:39:49.358Z,78.33
2018-04-11T16:42:16.933Z,71.83
2018-04-11T16:44:44.466Z,84.00
2018-04-11T16:47:11.917Z,76.80
2018-04-11T16:49:39.382Z,70.43
2018-04-11T16:52:06.977Z,77.37
2018-04-11T16:54:35.243Z,87.63
2018-04-11T16:57:03.600Z,76.87
2018-04-11T16:59:31.153Z,74.00
2018-04-11T17:01:58.711Z,79.87
2018-04-11T17:04:26.185Z,78.47
2018-04-11T17:06:53.634Z,68.40
2018-04-11T17:09:21.099Z,73.27
2018-04-11T17:11:48.550Z,78.67
2018-04-11T17:14:16.033Z,79.13
2018-04-11T17:16:44.595Z,67.63
2018-04-11T17:19:12.043Z,71.23
2018-04-11T17:21:51.506Z,74.40
2018-04-11T17:24:31.511Z,77.80
2018-04-11T17:27:11.060Z,79.07
2018-04-11T17:29:50.327Z,77.40
2018-04-11T17:32:17.782Z,72.40
2018-04-11T17:34:46.117Z,81.87
2018-04-11T17:37:13.574Z,91.40
2018-04-11T17:39:41.034Z,75.27
2018-04-11T17:42:08.526Z,82.07
2018-04-11T17:44:36.733Z,73.20
2018-04-11T17:47:04.234Z,75.87
2018-04-11T17:49:31.783Z,77.60
2018-04-11T17:51:59.366Z,80.30
2018-04-11T17:54:28.222Z,79.00
2018-04-11T17:56:56.464Z,84.47
2018-04-11T17:59:23.923Z,80.57
2018-04-11T18:01:51.403Z,85.70
2018-04-11T18:04:18.891Z,77.50
2018-04-11T18:06:47.121Z,84.70
2018-04-11T18:09:14.574Z,78.70
2018-04-11T18:11:42.041Z,82.03
2018-04-11T18:14:09.523Z,85.13
2018-04-11T18:16:37.059Z,79.97
2018-04-11T18:19:04.617Z,90.17
2018-04-11T18:21:32.131Z,82.70
2018-04-11T18:23:59.636Z,91.13
2018-04-11T18:26:27.062Z,87.67
2018-04-11T18:28:54.602Z,82.20
2018-04-11T18:31:22.059Z,81.53
2018-04-11T18:33:50.328Z,89.83
2018-04-11T18:36:17.834Z,90.93
2018-04-11T18:38:45.307Z,88.70
2018-04-11T18:41:13.558Z,90.73
2018-04-11T18:43:41.012Z,86.30
2018-04-11T18:46:08.689Z,99.07
2018-04-11T18:48:37.020Z,75.70
2018-04-11T18:51:04.615Z,88.47
2018-04-11T18:53:32.135Z,83.80
2018-04-11T18:55:59.626Z,93.73
2018-04-11T18:58:27.116Z,85.93
2018-04-11T19:00:55.332Z,104.47
2018-04-11T19:03:22.806Z,94.40
2018-04-11T19:05:50.291Z,82.43
2018-04-11T19:08:17.778Z,90.70
2018-04-11T19:10:45.217Z,84.43
2018-04-11T19:13:13.602Z,100.30
2018-04-11T19:15:41.026Z,98.80
2018-04-11T19:18:08.487Z,84.10
2018-04-11T19:20:37.062Z,88.63
2018-04-11T19:23:05.431Z,83.90
2018-04-11T19:25:32.979Z,90.97
2018-04-11T19:28:00.543Z,107.47
2018-04-11T19:30:28.027Z,79.37
2018-04-11T19:32:56.264Z,99.37
2018-04-11T19:35:23.736Z,85.37
2018-04-11T19:37:51.287Z,79.97
2018-04-11T19:40:19.564Z,88.00
2018-04-11T19:42:47.024Z,96.90
2018-04-11T19:45:14.475Z,82.83
2018-04-11T19:47:42.022Z,76.73
2018-04-11T19:50:09.532Z,73.80
2018-04-11T19:52:37.053Z,80.60
2018-04-11T19:55:04.616Z,88.90
2018-04-11T19:57:32.876Z,83.23
2018-04-11T20:00:00.346Z,93.67
2018-04-11T20:02:27.886Z,82.30
2018-04-11T20:04:55.371Z,83.17
2018-04-11T20:07:23.607Z,78.80
2018-04-11T20:09:51.071Z,84.83
2018-04-11T20:12:18.538Z,76.07
2018-04-11T20:14:46.010Z,81.13
2018-04-11T20:17:14.608Z,78.17
2018-04-11T20:19:42.123Z,93.40
2018-04-11T20:22:09.653Z,80.57
2018-04-11T20:24:37.144Z,82.00
2018-04-11T20:27:04.697Z,82.67
2018-04-11T20:29:32.257Z,75.90
2018-04-11T20:32:00.482Z,79.00
2018-04-11T20:34:27.984Z,91.67
2018-04-11T20:36:55.521Z,87.77
2018-04-11T20:39:23.090Z,80.03
2018-04-11T20:41:50.606Z,76.03
2018-04-11T20:44:18.127Z,73.30
2018-04-11T20:46:46.500Z,71.13
2018-04-11T20:49:14.783Z,73.97
2018-04-11T20:51:43.028Z,79.13
2018-04-11T20:54:10.479Z,74.23
2018-04-11T20:56:38.047Z,77.10
2018-04-11T20:59:06.490Z,56.20
2018-04-11T21:01:34.275Z,57.00
2018-04-11T21:04:01.763Z,57.43
2018-04-11T21:06:29.214Z,58.83
2018-04-11T21:08:56.692Z,58.47
2018-04-11T21:11:25.067Z,49.47
2018-04-11T21:13:53.369Z,55.93
2018-04-11T21:16:20.813Z,57.33
2018-04-11T21:18:48.338Z,56.83
2018-04-11T21:21:15.916Z,55.67
2018-04-11T21:23:54.787Z,74.20
2018-04-11T21:26:23.084Z,67.13
2018-04-11T21:28:50.658Z,58.80
2018-04-11T21:31:18.114Z,76.93
2018-04-11T21:33:46.374Z,67.83
2018-04-11T21:36:13.943Z,71.27
2018-04-11T21:38:42.194Z,73.23
2018-04-11T21:41:09.720Z,70.80
2018-04-11T21:43:37.198Z,87.53
2018-04-11T21:46:04.766Z,89.50
2018-04-11T21:48:32.326Z,86.80
2018-04-11T21:50:59.822Z,80.00
2018-04-11T21:53:27.248Z,83.53
2018-04-11T21:55:54.688Z,82.80
2018-04-11T21:58:22.174Z,76.40
2018-04-11T22:00:49.709Z,78.60
2018-04-11T22:03:17.261Z,80.17
2018-04-11T22:05:44.828Z,81.93
2018-04-11T22:08:12.291Z,78.40
2018-04-11T22:10:39.756Z,79.83
2018-04-11T22:13:07.222Z,77.30
2018-04-11T22:15:35.467Z,72.57
2018-04-11T22:18:02.942Z,73.60
2018-04-11T22:20:30.461Z,70.50
2018-04-11T22:22:58.067Z,69.57
2018-04-11T22:25:25.490Z,80.67
2018-04-11T22:27:53.046Z,74.20
2018-04-11T22:30:20.503Z,82.97
2018-04-11T22:32:47.974Z,86.27
2018-04-11T22:35:15.516Z,88.80
2018-04-11T22:37:43.078Z,82.17
2018-04-11T22:40:10.541Z,89.20
2018-04-11T22:42:38.800Z,100.17
2018-04-11T22:45:06.252Z,109.73
2018-04-11T22:47:33.705Z,112.97
2018-04-11T22:50:01.280Z,112.17
2018-04-11T22:52:28.745Z,106.63
2018-04-11T22:54:56.963Z,104.37
2018-04-11T22:57:24.486Z,115.67
2018-04-11T22:59:52.746Z,117.27
2018-04-11T23:02:21.021Z,117.27
2018-04-11T23:04:49.386Z,119.93
2018-04-11T23:07:16.840Z,126.77
2018-04-11T23:09:44.312Z,133.20
2018-04-11T23:12:11.786Z,122.47
2018-04-11T23:14:40.027Z,127.57
2018-04-11T23:17:07.480Z,122.20
2018-04-11T23:19:34.939Z,130.67
2018-04-11T23:22:02.392Z,122.97
2018-04-11T23:24:29.911Z,126.80
2018-04-11T23:26:57.419Z,136.23
2018-04-11T23:29:25.669Z,125.90
2018-04-11T23:31:53.132Z,127.97
2018-04-11T23:34:20.677Z,128.37
2018-04-11T23:36:48.155Z,130.47
2018-04-11T23:39:15.617Z,132.20
2018-04-11T23:41:43.154Z,127.33
2018-04-11T23:44:10.621Z,132.07
2018-04-11T23:46:38.093Z,124.87
2018-04-11T23:49:06.439Z,123.17
2018-04-11T23:51:33.902Z,125.47
2018-04-11T23:54:01.498Z,122.63
2018-04-11T23:56:29.038Z,113.93
2018-04-11T23:58:57.994Z,117.77
